createdAt,value
2018-03-29T00:00:37.411Z,99.52
2018-03-29T00:01:37.422Z,99.43
2018-03-29T00:02:37.429Z,99.80
2018-03-29T00:03:37.436Z,99.80
2018-03-29T00:04:37.436Z,99.62
2018-03-29T00:05:37.443Z,99.99
2018-03-29T00:06:37.451Z,99.71
2018-03-29T00:07:37.462Z,99.71
2018-03-29T00:08:37.463Z,99.71
2018-03-29T00:09:37.467Z,99.62
2018-03-29T00:10:37.475Z,99.15
2018-03-29T00:11:37.487Z,99.71
2018-03-29T00:12:37.495Z,99.71
2018-03-29T00:13:37.495Z,99.52
2018-03-29T00:14:37.502Z,99.43
2018-03-29T00:15:37.508Z,99.71
2018-03-29T00:16:37.517Z,99.62
2018-03-29T00:17:37.521Z,99.90
2018-03-29T00:18:37.533Z,99.90
2018-03-29T00:19:37.539Z,99.80
2018-03-29T00:20:37.540Z,98.96
2018-03-29T00:21:37.553Z,99.24
2018-03-29T00:22:37.559Z,99.05
2018-03-29T00:23:37.565Z,98.77
2018-03-29T00:24:37.566Z,98.48
2018-03-29T00:25:37.578Z,98.58
2018-03-29T00:26:37.586Z,98.39
2018-03-29T00:27:37.592Z,97.63
2018-03-29T00:28:37.599Z,97.53
2018-03-29T00:29:37.600Z,97.82
2018-03-29T00:30:37.610Z,97.25
2018-03-29T00:31:37.612Z,97.91
2018-03-29T00:32:37.623Z,98.39
2018-03-29T00:33:37.631Z,98.10
2018-03-29T00:34:37.638Z,98.29
2018-03-29T00:35:37.644Z,97.91
2018-03-29T00:36:37.646Z,98.58
2018-03-29T00:37:37.657Z,98.48
2018-03-29T00:38:37.658Z,98.48
2018-03-29T00:39:37.664Z,98.39
2018-03-29T00:40:37.675Z,99.05
2018-03-29T00:41:37.682Z,99.05
2018-03-29T00:42:37.684Z,99.90
2018-03-29T00:43:37.690Z,99.99
2018-03-29T00:44:37.702Z,99.99
2018-03-29T00:45:37.708Z,99.99
2018-03-29T00:46:37.714Z,99.99
2018-03-29T00:47:37.722Z,99.99
2018-03-29T00:48:37.722Z,99.99
2018-03-29T00:49:37.735Z,99.99
2018-03-29T00:50:37.739Z,99.99
2018-03-29T00:51:37.742Z,99.99
2018-03-29T00:52:37.749Z,99.99
2018-03-29T00:53:37.761Z,99.99
2018-03-29T00:54:37.770Z,99.99
2018-03-29T00:55:37.772Z,99.99
2018-03-29T00:56:37.778Z,99.99
2018-03-29T00:57:37.780Z,99.99
2018-03-29T00:58:37.791Z,99.99
2018-03-29T00:59:37.799Z,99.99
2018-03-29T01:00:37.804Z,99.99
2018-03-29T01:01:37.805Z,99.99
2018-03-29T01:02:37.812Z,99.99
2018-03-29T01:03:37.822Z,99.99
2018-03-29T01:04:37.829Z,99.99
2018-03-29T01:05:37.836Z,99.99
2018-03-29T01:06:37.844Z,99.99
2018-03-29T01:07:37.849Z,99.99
2018-03-29T01:08:37.855Z,99.99
2018-03-29T01:09:37.856Z,99.99
2018-03-29T01:10:37.862Z,99.99
2018-03-29T01:11:37.875Z,99.99
2018-03-29T01:12:37.875Z,99.99
2018-03-29T01:13:37.887Z,99.99
2018-03-29T01:14:37.897Z,99.99
2018-03-29T01:15:37.896Z,99.99
2018-03-29T01:16:37.901Z,99.99
2018-03-29T01:17:37.914Z,99.99
2018-03-29T01:18:37.915Z,99.99
2018-03-29T01:19:37.921Z,99.99
2018-03-29T01:20:37.935Z,99.99
2018-03-29T01:21:37.942Z,99.99
2018-03-29T01:22:37.941Z,99.99
2018-03-29T01:23:37.948Z,99.99
2018-03-29T01:24:37.954Z,99.99
2018-03-29T01:25:37.965Z,99.99
2018-03-29T01:26:37.977Z,99.99
2018-03-29T01:27:37.979Z,99.99
2018-03-29T01:28:37.984Z,99.99
2018-03-29T01:29:37.985Z,99.99
2018-03-29T01:30:37.992Z,99.99
2018-03-29T01:31:37.996Z,99.99
2018-03-29T01:32:38.004Z,99.99
2018-03-29T01:33:38.015Z,99.99
2018-03-29T01:34:38.018Z,99.99
2018-03-29T01:35:38.030Z,99.99
2018-03-29T01:36:38.035Z,99.99
2018-03-29T01:37:38.035Z,99.99
2018-03-29T01:38:38.047Z,99.99
2018-03-29T01:39:38.053Z,99.99
2018-03-29T01:40:38.056Z,99.99
2018-03-29T01:41:38.060Z,99.99
2018-03-29T01:42:38.073Z,99.99
2018-03-29T01:43:38.078Z,99.99
2018-03-29T01:44:38.087Z,99.99
2018-03-29T01:45:38.087Z,99.99
2018-03-29T01:46:38.093Z,99.99
2018-03-29T01:47:38.106Z,99.99
2018-03-29T01:48:38.106Z,99.99
2018-03-29T01:49:38.112Z,99.99
2018-03-29T01:50:38.119Z,99.99
2018-03-29T01:51:38.133Z,99.99
2018-03-29T01:52:38.137Z,99.99
2018-03-29T01:53:38.143Z,99.99
2018-03-29T01:54:38.145Z,99.99
2018-03-29T01:55:38.159Z,99.99
2018-03-29T01:56:38.157Z,99.99
2018-03-29T01:57:38.166Z,99.99
2018-03-29T01:58:38.177Z,99.99
2018-03-29T01:59:38.178Z,99.99
2018-03-29T02:00:38.189Z,99.99
2018-03-29T02:01:38.196Z,99.99
2018-03-29T02:02:38.201Z,99.99
2018-03-29T02:03:38.208Z,99.99
2018-03-29T02:04:38.220Z,99.99
2018-03-29T02:05:38.215Z,99.99
2018-03-29T02:06:38.228Z,99.99
2018-03-29T02:07:38.233Z,99.99
2018-03-29T02:08:38.241Z,99.99
2018-03-29T02:09:38.240Z,99.99
2018-03-29T02:10:38.253Z,99.99
2018-03-29T02:11:38.264Z,99.99
2018-03-29T02:12:38.269Z,99.99
2018-03-29T02:13:38.272Z,99.99
2018-03-29T02:14:38.274Z,99.99
2018-03-29T02:15:38.286Z,99.99
2018-03-29T02:16:38.294Z,99.99
2018-03-29T02:17:38.298Z,99.99
2018-03-29T02:18:38.299Z,99.99
2018-03-29T02:19:38.312Z,99.99
2018-03-29T02:20:38.310Z,99.99
2018-03-29T02:21:38.320Z,99.99
2018-03-29T02:22:38.330Z,99.99
2018-03-29T02:23:38.336Z,99.99
2018-03-29T02:24:38.342Z,99.99
2018-03-29T02:25:38.349Z,99.99
2018-03-29T02:26:38.357Z,99.99
2018-03-29T02:27:38.355Z,99.99
2018-03-29T02:28:38.361Z,99.99
2018-03-29T02:29:38.375Z,99.99
2018-03-29T02:30:38.382Z,99.99
2018-03-29T02:31:38.388Z,99.99
2018-03-29T02:32:38.425Z,99.99
2018-03-29T02:33:38.400Z,99.99
2018-03-29T02:34:38.406Z,99.99
2018-03-29T02:35:38.418Z,99.99
2018-03-29T02:36:38.414Z,99.99
2018-03-29T02:37:38.424Z,99.99
2018-03-29T02:38:38.432Z,99.99
2018-03-29T02:39:38.431Z,99.52
2018-03-29T02:40:38.440Z,99.99
2018-03-29T02:41:38.450Z,99.52
2018-03-29T02:42:38.456Z,99.05
2018-03-29T02:43:38.472Z,99.80
2018-03-29T02:44:38.463Z,99.80
2018-03-29T02:45:38.471Z,99.80
2018-03-29T02:46:38.485Z,99.05
2018-03-29T02:47:38.483Z,99.62
2018-03-29T02:48:38.503Z,99.71
2018-03-29T02:49:38.493Z,99.80
2018-03-29T02:50:38.502Z,99.80
2018-03-29T02:51:38.512Z,99.99
2018-03-29T02:52:38.515Z,99.99
2018-03-29T02:53:38.519Z,99.62
2018-03-29T02:54:38.531Z,99.90
2018-03-29T02:55:38.540Z,99.62
2018-03-29T02:56:38.539Z,99.90
2018-03-29T02:57:38.550Z,99.33
2018-03-29T02:58:38.555Z,98.96
2018-03-29T02:59:38.562Z,98.39
2018-03-29T03:00:38.573Z,98.48
2018-03-29T03:01:38.570Z,98.20
2018-03-29T03:02:38.581Z,97.91
2018-03-29T03:03:38.582Z,98.48
2018-03-29T03:04:38.588Z,98.29
2018-03-29T03:05:38.599Z,98.01
2018-03-29T03:06:38.600Z,99.15
2018-03-29T03:07:38.613Z,99.05
2018-03-29T03:08:38.614Z,99.15
2018-03-29T03:09:38.628Z,99.24
2018-03-29T03:10:38.631Z,98.86
2018-03-29T03:11:38.636Z,98.77
2018-03-29T03:12:38.640Z,98.77
2018-03-29T03:13:38.643Z,98.58
2018-03-29T03:14:38.649Z,98.29
2018-03-29T03:15:38.661Z,97.91
2018-03-29T03:16:38.662Z,97.63
2018-03-29T03:17:38.668Z,98.01
2018-03-29T03:18:38.673Z,97.63
2018-03-29T03:19:38.680Z,97.44
2018-03-29T03:20:38.692Z,96.97
2018-03-29T03:21:38.700Z,95.74
2018-03-29T03:22:38.700Z,94.89
2018-03-29T03:23:38.705Z,94.13
2018-03-29T03:24:38.712Z,94.42
2018-03-29T03:25:38.721Z,96.12
2018-03-29T03:26:38.731Z,97.72
2018-03-29T03:27:38.738Z,98.10
2018-03-29T03:28:38.737Z,98.48
2018-03-29T03:29:38.744Z,98.67
2018-03-29T03:30:38.751Z,99.05
2018-03-29T03:31:38.765Z,99.99
2018-03-29T03:32:38.762Z,99.99
2018-03-29T03:33:38.770Z,99.99
2018-03-29T03:34:38.776Z,99.99
2018-03-29T03:35:38.786Z,99.99
2018-03-29T03:36:38.787Z,99.99
2018-03-29T03:37:38.794Z,99.99
2018-03-29T03:38:38.817Z,99.99
2018-03-29T03:39:38.812Z,99.99
2018-03-29T03:40:38.811Z,99.99
2018-03-29T03:41:38.819Z,99.99
2018-03-29T03:42:38.831Z,99.99
2018-03-29T03:43:38.831Z,99.99
2018-03-29T03:44:38.836Z,99.99
2018-03-29T03:45:38.844Z,99.99
2018-03-29T03:46:38.850Z,99.99
2018-03-29T03:47:38.856Z,99.99
2018-03-29T03:48:38.868Z,99.99
2018-03-29T03:49:38.873Z,99.99
2018-03-29T03:50:38.877Z,99.99
2018-03-29T03:51:38.880Z,99.99
2018-03-29T03:52:38.887Z,99.99
2018-03-29T03:53:38.893Z,99.99
2018-03-29T03:54:38.899Z,99.99
2018-03-29T03:55:38.911Z,99.99
2018-03-29T03:56:38.912Z,99.99
2018-03-29T03:57:38.924Z,99.99
2018-03-29T03:58:38.925Z,99.99
2018-03-29T03:59:38.932Z,99.99
2018-03-29T04:00:38.942Z,99.99
2018-03-29T04:01:38.948Z,99.99
2018-03-29T04:02:38.950Z,99.99
2018-03-29T04:03:38.962Z,99.99
2018-03-29T04:04:38.968Z,99.99
2018-03-29T04:05:38.975Z,99.99
2018-03-29T04:06:38.977Z,99.99
2018-03-29T04:07:38.987Z,99.99
2018-03-29T04:08:38.993Z,99.99
2018-03-29T04:09:38.994Z,99.90
2018-03-29T04:10:39.006Z,99.90
2018-03-29T04:11:39.006Z,99.62
2018-03-29T04:12:39.019Z,99.80
2018-03-29T04:13:39.024Z,99.52
2018-03-29T04:14:39.029Z,99.24
2018-03-29T04:15:39.038Z,98.96
2018-03-29T04:16:39.038Z,98.96
2018-03-29T04:17:39.044Z,98.48
2018-03-29T04:18:39.056Z,98.58
2018-03-29T04:19:39.063Z,98.48
2018-03-29T04:20:39.063Z,98.58
2018-03-29T04:21:39.068Z,98.29
2018-03-29T04:22:39.076Z,98.77
2018-03-29T04:23:39.088Z,98.20
2018-03-29T04:24:39.094Z,98.58
2018-03-29T04:25:39.093Z,98.77
2018-03-29T04:26:39.101Z,98.67
2018-03-29T04:27:39.107Z,98.77
2018-03-29T04:28:39.113Z,99.24
2018-03-29T04:29:39.124Z,98.86
2018-03-29T04:30:39.125Z,99.52
2018-03-29T04:31:39.134Z,99.80
2018-03-29T04:32:39.142Z,99.52
2018-03-29T04:33:39.143Z,99.99
2018-03-29T04:34:39.156Z,99.99
2018-03-29T04:35:39.160Z,99.99
2018-03-29T04:36:39.162Z,99.99
2018-03-29T04:37:39.173Z,99.99
2018-03-29T04:38:39.175Z,99.99
2018-03-29T04:39:39.180Z,99.99
2018-03-29T04:40:39.190Z,99.99
2018-03-29T04:41:39.195Z,99.99
2018-03-29T04:42:39.202Z,99.99
2018-03-29T04:43:39.210Z,99.99
2018-03-29T04:44:39.208Z,99.99
2018-03-29T04:45:39.223Z,99.99
2018-03-29T04:46:39.220Z,99.99
2018-03-29T04:47:39.228Z,99.99
2018-03-29T04:48:39.232Z,99.99
2018-03-29T04:49:39.238Z,99.99
2018-03-29T04:50:39.244Z,99.99
2018-03-29T04:51:39.249Z,99.99
2018-03-29T04:52:39.255Z,99.99
2018-03-29T04:53:39.265Z,99.99
2018-03-29T04:54:39.276Z,99.99
2018-03-29T04:55:39.272Z,99.99
2018-03-29T04:56:39.282Z,99.99
2018-03-29T04:57:39.288Z,99.99
2018-03-29T04:58:39.290Z,99.99
2018-03-29T04:59:39.299Z,99.99
2018-03-29T05:00:39.300Z,99.99
2018-03-29T05:01:39.312Z,99.99
2018-03-29T05:02:39.312Z,99.99
2018-03-29T05:03:39.317Z,99.99
2018-03-29T05:04:39.326Z,99.99
2018-03-29T05:05:39.332Z,99.99
2018-03-29T05:06:39.339Z,99.99
2018-03-29T05:07:39.352Z,99.99
2018-03-29T05:08:39.344Z,99.99
2018-03-29T05:09:39.356Z,99.99
2018-03-29T05:10:39.355Z,99.99
2018-03-29T05:11:39.360Z,99.99
2018-03-29T05:12:39.365Z,99.99
2018-03-29T05:13:39.376Z,99.99
2018-03-29T05:14:39.378Z,99.99
2018-03-29T05:15:39.389Z,99.99
2018-03-29T05:16:39.386Z,99.99
2018-03-29T05:17:39.399Z,99.95
2018-03-29T05:18:39.400Z,99.99
2018-03-29T05:19:39.409Z,99.99
2018-03-29T05:20:39.410Z,99.99
2018-03-29T05:21:39.415Z,99.99
2018-03-29T05:22:39.424Z,99.99
2018-03-29T05:23:39.427Z,99.99
2018-03-29T05:24:39.431Z,99.99
2018-03-29T05:25:39.443Z,99.99
2018-03-29T05:26:39.451Z,99.66
2018-03-29T05:27:39.456Z,99.76
2018-03-29T05:28:39.455Z,99.90
2018-03-29T05:29:39.460Z,99.90
2018-03-29T05:30:39.467Z,99.76
2018-03-29T05:31:39.471Z,99.33
2018-03-29T05:32:39.484Z,99.85
2018-03-29T05:33:39.484Z,99.99
2018-03-29T05:34:39.494Z,99.57
2018-03-29T05:35:39.501Z,99.99
2018-03-29T05:36:39.501Z,99.99
2018-03-29T05:37:39.506Z,99.99
2018-03-29T05:38:39.518Z,99.99
2018-03-29T05:39:39.522Z,99.80
2018-03-29T05:40:39.532Z,99.85
2018-03-29T05:41:39.529Z,99.71
2018-03-29T05:42:39.535Z,99.62
2018-03-29T05:43:39.547Z,99.00
2018-03-29T05:44:39.555Z,99.24
2018-03-29T05:45:39.562Z,98.67
2018-03-29T05:46:39.565Z,98.96
2018-03-29T05:47:39.567Z,98.86
2018-03-29T05:48:39.576Z,98.86
2018-03-29T05:49:39.575Z,98.67
2018-03-29T05:50:39.584Z,98.77
2018-03-29T05:51:39.594Z,98.77
2018-03-29T05:52:39.598Z,98.77
2018-03-29T05:53:39.605Z,98.77
2018-03-29T05:54:39.612Z,98.48
2018-03-29T05:55:39.613Z,98.29
2018-03-29T05:56:39.618Z,98.29
2018-03-29T05:57:42.015Z,98.01
2018-03-29T05:58:39.629Z,98.39
2018-03-29T05:59:39.697Z,97.63
2018-03-29T06:00:39.646Z,97.91
2018-03-29T06:01:39.646Z,97.72
2018-03-29T06:02:39.653Z,97.91
2018-03-29T06:03:39.664Z,97.34
2018-03-29T06:04:39.671Z,96.88
2018-03-29T06:05:39.676Z,97.53
2018-03-29T06:06:39.683Z,97.63
2018-03-29T06:07:39.688Z,97.53
2018-03-29T06:08:39.688Z,98.29
2018-03-29T06:09:39.694Z,97.44
2018-03-29T06:10:39.700Z,96.88
2018-03-29T06:11:39.715Z,96.78
2018-03-29T06:12:39.716Z,97.34
2018-03-29T06:13:39.724Z,97.16
2018-03-29T06:14:39.729Z,97.44
2018-03-29T06:15:39.736Z,96.59
2018-03-29T06:16:39.740Z,96.97
2018-03-29T06:17:39.740Z,96.40
2018-03-29T06:18:39.753Z,96.12
2018-03-29T06:19:39.752Z,96.50
2018-03-29T06:20:39.757Z,96.21
2018-03-29T06:21:39.764Z,95.83
2018-03-29T06:22:39.772Z,95.55
2018-03-29T06:23:39.776Z,95.64
2018-03-29T06:24:39.786Z,95.74
2018-03-29T06:25:39.789Z,95.45
2018-03-29T06:26:39.800Z,96.02
2018-03-29T06:27:39.806Z,95.74
2018-03-29T06:28:39.818Z,96.21
2018-03-29T06:29:39.818Z,96.21
2018-03-29T06:30:39.819Z,96.40
2018-03-29T06:31:39.831Z,95.36
2018-03-29T06:32:39.837Z,95.83
2018-03-29T06:33:39.841Z,95.26
2018-03-29T06:34:39.851Z,94.98
2018-03-29T06:35:39.856Z,94.32
2018-03-29T06:36:39.856Z,94.70
2018-03-29T06:37:39.862Z,94.23
2018-03-29T06:38:39.920Z,93.75
2018-03-29T06:39:39.880Z,93.94
2018-03-29T06:40:39.887Z,93.94
2018-03-29T06:41:39.887Z,93.66
2018-03-29T06:42:39.895Z,93.85
2018-03-29T06:43:39.905Z,93.28
2018-03-29T06:44:39.907Z,93.28
2018-03-29T06:45:39.914Z,93.18
2018-03-29T06:46:39.919Z,92.94
2018-03-29T06:47:39.925Z,92.71
2018-03-29T06:48:39.938Z,92.85
2018-03-29T06:49:39.938Z,92.66
2018-03-29T06:50:39.944Z,92.47
2018-03-29T06:51:39.956Z,92.29
2018-03-29T06:52:39.962Z,92.66
2018-03-29T06:53:39.970Z,92.57
2018-03-29T06:54:39.977Z,92.57
2018-03-29T06:55:39.984Z,92.19
2018-03-29T06:56:39.982Z,92.10
2018-03-29T06:57:39.990Z,92.29
2018-03-29T06:58:40.004Z,92.19
2018-03-29T06:59:40.010Z,91.91
2018-03-29T07:00:40.016Z,92.38
2018-03-29T07:01:40.022Z,92.10
2018-03-29T07:02:40.030Z,92.19
2018-03-29T07:03:40.036Z,92.38
2018-03-29T07:04:40.041Z,91.43
2018-03-29T07:05:40.049Z,90.58
2018-03-29T07:06:40.050Z,90.39
2018-03-29T07:07:40.058Z,90.48
2018-03-29T07:08:40.069Z,90.77
2018-03-29T07:09:40.076Z,90.30
2018-03-29T07:10:40.078Z,90.58
2018-03-29T07:11:40.084Z,89.82
2018-03-29T07:12:40.097Z,89.44
2018-03-29T07:13:40.102Z,90.96
2018-03-29T07:14:40.105Z,90.30
2018-03-29T07:15:40.118Z,88.97
2018-03-29T07:16:40.125Z,90.01
2018-03-29T07:17:40.126Z,90.30
2018-03-29T07:18:40.138Z,91.10
2018-03-29T07:19:40.139Z,91.62
2018-03-29T07:20:40.146Z,91.01
2018-03-29T07:21:40.158Z,89.31
2018-03-29T07:22:40.165Z,88.97
2018-03-29T07:23:40.174Z,88.68
2018-03-29T07:24:40.172Z,88.97
2018-03-29T07:25:40.180Z,88.97
2018-03-29T07:26:40.191Z,89.35
2018-03-29T07:27:40.198Z,89.35
2018-03-29T07:28:40.203Z,88.68
2018-03-29T07:29:40.210Z,88.68
2018-03-29T07:30:40.213Z,88.97
2018-03-29T07:31:40.224Z,89.06
2018-03-29T07:32:40.229Z,89.44
2018-03-29T07:33:40.234Z,87.93
2018-03-29T07:34:40.240Z,87.17
2018-03-29T07:35:40.253Z,87.36
2018-03-29T07:36:40.253Z,86.93
2018-03-29T07:37:40.264Z,86.98
2018-03-29T07:38:40.273Z,87.08
2018-03-29T07:39:40.288Z,87.17
2018-03-29T07:40:40.282Z,87.84
2018-03-29T07:41:40.287Z,89.25
2018-03-29T07:42:40.301Z,89.44
2018-03-29T07:43:40.308Z,89.49
2018-03-29T07:44:40.317Z,88.07
2018-03-29T07:45:40.318Z,86.83
2018-03-29T07:46:40.329Z,86.46
2018-03-29T07:47:40.331Z,86.18
2018-03-29T07:48:40.345Z,85.99
2018-03-29T07:49:40.345Z,85.99
2018-03-29T07:50:40.360Z,86.18
2018-03-29T07:51:40.360Z,86.74
2018-03-29T07:52:40.368Z,87.08
2018-03-29T07:53:40.382Z,86.79
2018-03-29T07:54:40.389Z,88.12
2018-03-29T07:55:40.389Z,88.59
2018-03-29T07:56:40.402Z,88.68
2018-03-29T07:57:40.403Z,88.97
2018-03-29T07:58:40.410Z,89.25
2018-03-29T07:59:40.419Z,88.68
2018-03-29T08:00:40.431Z,88.17
2018-03-29T08:01:40.438Z,87.59
2018-03-29T08:02:40.445Z,87.12
2018-03-29T08:03:40.453Z,87.02
2018-03-29T08:04:40.456Z,86.65
2018-03-29T08:05:40.469Z,86.36
2018-03-29T08:06:40.471Z,86.55
2018-03-29T08:07:40.483Z,87.02
2018-03-29T08:08:40.484Z,87.12
2018-03-29T08:09:40.492Z,86.83
2018-03-29T08:10:40.506Z,87.50
2018-03-29T08:11:40.517Z,90.15
2018-03-29T08:12:40.516Z,91.19
2018-03-29T08:13:40.528Z,91.81
2018-03-29T08:14:40.531Z,92.29
2018-03-29T08:15:40.542Z,91.72
2018-03-29T08:16:40.546Z,92.85
2018-03-29T08:17:40.560Z,92.99
2018-03-29T08:18:40.567Z,92.71
2018-03-29T08:19:40.568Z,91.57
2018-03-29T08:20:40.580Z,90.81
2018-03-29T08:21:40.588Z,89.01
2018-03-29T08:22:40.596Z,86.83
2018-03-29T08:23:40.620Z,86.36
2018-03-29T08:24:40.612Z,87.78
2018-03-29T08:25:40.615Z,87.59
2018-03-29T08:26:40.623Z,85.99
2018-03-29T08:27:40.630Z,86.03
2018-03-29T08:28:40.638Z,85.80
2018-03-29T08:29:40.655Z,86.93
2018-03-29T08:30:40.661Z,90.34
2018-03-29T08:31:40.663Z,91.76
2018-03-29T08:32:40.675Z,92.61
2018-03-29T08:33:40.678Z,92.33
2018-03-29T08:34:40.689Z,92.61
2018-03-29T08:35:40.699Z,93.27
2018-03-29T08:36:40.707Z,92.71
2018-03-29T08:37:40.710Z,91.76
2018-03-29T08:38:40.722Z,90.53
2018-03-29T08:39:40.725Z,90.34
2018-03-29T08:40:40.739Z,90.01
2018-03-29T08:41:40.747Z,89.15
2018-03-29T08:42:40.750Z,89.53
2018-03-29T08:43:40.760Z,90.10
2018-03-29T08:44:40.771Z,89.53
2018-03-29T08:45:40.781Z,87.83
2018-03-29T08:46:40.788Z,87.16
2018-03-29T08:47:40.789Z,86.41
2018-03-29T08:48:40.796Z,85.36
2018-03-29T08:49:40.805Z,85.36
2018-03-29T08:50:40.815Z,84.80
2018-03-29T08:51:40.830Z,84.80
2018-03-29T08:52:40.829Z,84.04
2018-03-29T08:53:40.838Z,83.70
2018-03-29T08:54:40.852Z,83.89
2018-03-29T08:55:40.861Z,83.80
2018-03-29T08:56:40.863Z,84.84
2018-03-29T08:57:40.877Z,83.80
2018-03-29T08:58:40.885Z,83.70
2018-03-29T08:59:40.893Z,83.61
2018-03-29T09:00:40.903Z,83.98
2018-03-29T09:01:40.907Z,83.09
2018-03-29T09:02:40.915Z,84.51
2018-03-29T09:03:40.931Z,90.20
2018-03-29T09:04:40.936Z,90.58
2018-03-29T09:05:40.945Z,89.72
2018-03-29T09:06:40.949Z,87.68
2018-03-29T09:07:40.964Z,85.97
2018-03-29T09:08:40.972Z,86.55
2018-03-29T09:09:40.980Z,85.88
2018-03-29T09:10:40.990Z,84.36
2018-03-29T09:11:40.993Z,83.51
2018-03-29T09:12:41.001Z,83.98
2018-03-29T09:13:41.010Z,85.13
2018-03-29T09:14:41.020Z,84.46
2018-03-29T09:15:41.035Z,83.80
2018-03-29T09:16:41.044Z,83.23
2018-03-29T09:17:41.047Z,85.17
2018-03-29T09:18:41.061Z,86.98
2018-03-29T09:19:41.065Z,86.22
2018-03-29T09:20:41.073Z,85.70
2018-03-29T09:21:41.083Z,88.11
2018-03-29T09:22:41.098Z,87.83
2018-03-29T09:23:41.107Z,87.16
2018-03-29T09:24:41.115Z,84.36
2018-03-29T09:25:41.122Z,83.98
2018-03-29T09:26:41.134Z,85.69
2018-03-29T09:27:41.142Z,88.54
2018-03-29T09:28:41.145Z,84.94
2018-03-29T09:29:41.164Z,83.51
2018-03-29T09:30:41.172Z,82.89
2018-03-29T09:31:41.173Z,82.37
2018-03-29T09:32:41.183Z,82.85
2018-03-29T09:33:41.194Z,85.88
2018-03-29T09:34:41.207Z,87.83
2018-03-29T09:35:41.246Z,87.88
2018-03-29T09:36:41.225Z,89.15
2018-03-29T09:37:41.227Z,86.98
2018-03-29T09:38:41.243Z,85.84
2018-03-29T09:39:41.255Z,86.31
2018-03-29T09:40:41.263Z,88.40
2018-03-29T09:41:41.264Z,89.06
2018-03-29T09:42:41.280Z,86.45
2018-03-29T09:43:41.284Z,87.07
2018-03-29T09:44:41.293Z,91.81
2018-03-29T09:45:41.302Z,93.89
2018-03-29T09:46:41.311Z,93.61
2018-03-29T09:47:41.319Z,93.80
2018-03-29T09:48:41.338Z,92.76
2018-03-29T09:49:41.336Z,92.19
2018-03-29T09:50:41.349Z,93.75
2018-03-29T09:51:41.358Z,92.43
2018-03-29T09:52:41.365Z,90.63
2018-03-29T09:53:41.373Z,92.80
2018-03-29T09:54:41.392Z,93.61
2018-03-29T09:55:41.391Z,92.09
2018-03-29T09:56:41.402Z,91.05
2018-03-29T09:57:41.415Z,90.43
2018-03-29T09:58:41.420Z,89.20
2018-03-29T09:59:41.427Z,87.68
2018-03-29T10:00:41.437Z,85.41
2018-03-29T10:01:41.444Z,85.50
2018-03-29T10:02:41.461Z,87.12
2018-03-29T10:03:41.464Z,86.16
2018-03-29T10:04:41.478Z,84.46
2018-03-29T10:05:41.483Z,85.03
2018-03-29T10:06:41.496Z,85.22
2018-03-29T10:07:41.498Z,83.04
2018-03-29T10:08:41.513Z,81.18
2018-03-29T10:09:41.523Z,81.18
2018-03-29T10:10:41.532Z,80.56
2018-03-29T10:11:41.535Z,82.84
2018-03-29T10:12:41.547Z,80.88
2018-03-29T10:13:41.554Z,78.99
2018-03-29T10:14:41.565Z,79.22
2018-03-29T10:15:41.577Z,78.17
2018-03-29T10:16:41.583Z,78.64
2018-03-29T10:17:41.598Z,75.04
2018-03-29T10:18:41.614Z,74.18
2018-03-29T10:19:41.615Z,74.37
2018-03-29T10:20:41.629Z,79.04
2018-03-29T10:21:41.640Z,81.88
2018-03-29T10:22:41.647Z,85.11
2018-03-29T10:23:41.664Z,86.16
2018-03-29T10:24:41.667Z,85.40
2018-03-29T10:25:41.677Z,87.58
2018-03-29T10:26:41.693Z,87.34
2018-03-29T10:27:41.704Z,89.14
2018-03-29T10:28:41.714Z,86.72
2018-03-29T10:29:41.719Z,86.11
2018-03-29T10:30:41.734Z,84.34
2018-03-29T10:31:41.742Z,84.49
2018-03-29T10:32:41.756Z,88.01
2018-03-29T10:33:41.767Z,87.30
2018-03-29T10:34:41.774Z,88.48
2018-03-29T10:35:41.832Z,90.14
2018-03-29T10:36:41.802Z,90.00
2018-03-29T10:37:41.811Z,90.86
2018-03-29T10:38:41.822Z,90.14
2018-03-29T10:39:41.829Z,86.97
2018-03-29T10:40:41.843Z,85.55
2018-03-29T10:41:41.856Z,85.21
2018-03-29T10:42:41.861Z,86.44
2018-03-29T10:43:41.878Z,88.01
2018-03-29T10:44:41.885Z,87.53
2018-03-29T10:45:41.892Z,89.14
2018-03-29T10:46:41.912Z,85.53
2018-03-29T10:47:41.922Z,88.20
2018-03-29T10:48:41.928Z,88.76
2018-03-29T10:49:41.939Z,88.86
2018-03-29T10:50:41.963Z,85.63
2018-03-29T10:51:41.966Z,82.40
2018-03-29T10:52:41.976Z,83.69
2018-03-29T10:53:41.982Z,82.93
2018-03-29T10:54:42.003Z,88.29
2018-03-29T10:55:42.012Z,90.76
2018-03-29T10:56:42.022Z,93.04
2018-03-29T10:57:42.027Z,91.52
2018-03-29T10:58:42.039Z,89.72
2018-03-29T10:59:42.050Z,88.01
2018-03-29T11:00:42.066Z,87.25
2018-03-29T11:01:42.080Z,87.87
2018-03-29T11:02:42.082Z,87.77
2018-03-29T11:03:42.099Z,84.88
2018-03-29T11:04:42.101Z,85.97
2018-03-29T11:05:42.121Z,89.11
2018-03-29T11:06:42.127Z,89.48
2018-03-29T11:07:42.139Z,88.96
2018-03-29T11:08:42.152Z,86.97
2018-03-29T11:09:42.162Z,85.83
2018-03-29T11:10:42.173Z,85.49
2018-03-29T11:11:42.179Z,84.45
2018-03-29T11:12:42.195Z,84.17
2018-03-29T11:13:42.199Z,82.46
2018-03-29T11:14:42.208Z,81.70
2018-03-29T11:15:42.220Z,82.12
2018-03-29T11:16:42.230Z,79.84
2018-03-29T11:17:42.243Z,81.79
2018-03-29T11:18:42.255Z,86.44
2018-03-29T11:19:42.268Z,82.97
2018-03-29T11:20:42.284Z,78.23
2018-03-29T11:21:42.283Z,76.14
2018-03-29T11:22:42.297Z,76.42
2018-03-29T11:23:42.315Z,78.28
2018-03-29T11:24:42.322Z,82.84
2018-03-29T11:25:42.333Z,79.99
2018-03-29T11:26:42.346Z,81.47
2018-03-29T11:27:42.355Z,82.04
2018-03-29T11:28:42.370Z,81.37
2018-03-29T11:29:42.371Z,81.70
2018-03-29T11:30:42.382Z,83.36
2018-03-29T11:31:42.399Z,83.07
2018-03-29T11:32:42.406Z,83.45
2018-03-29T11:33:42.421Z,81.84
2018-03-29T11:34:42.434Z,80.74
2018-03-29T11:35:42.436Z,81.59
2018-03-29T11:36:42.448Z,79.03
2018-03-29T11:37:42.465Z,76.18
2018-03-29T11:38:42.472Z,81.02
2018-03-29T11:39:42.483Z,79.12
2018-03-29T11:40:42.499Z,81.07
2018-03-29T11:41:42.506Z,77.66
2018-03-29T11:42:42.527Z,78.36
2018-03-29T11:43:42.531Z,76.50
2018-03-29T11:44:42.544Z,74.94
2018-03-29T11:45:42.552Z,77.79
2018-03-29T11:46:42.568Z,78.64
2018-03-29T11:47:42.581Z,79.12
2018-03-29T11:48:42.593Z,78.17
2018-03-29T11:49:42.600Z,75.79
2018-03-29T11:50:42.616Z,76.18
2018-03-29T11:51:42.622Z,75.13
2018-03-29T11:52:42.635Z,75.38
2018-03-29T11:53:42.646Z,76.90
2018-03-29T11:54:42.670Z,76.18
2018-03-29T11:55:42.676Z,75.79
2018-03-29T11:56:42.686Z,75.17
2018-03-29T11:57:42.699Z,71.08
2018-03-29T11:58:42.706Z,71.66
2018-03-29T11:59:42.716Z,71.84
2018-03-29T12:00:42.736Z,70.32
2018-03-29T12:01:42.746Z,67.38
2018-03-29T12:02:42.754Z,67.00
2018-03-29T12:03:42.771Z,69.46
2018-03-29T12:04:42.782Z,69.81
2018-03-29T12:05:42.795Z,70.48
2018-03-29T12:06:42.808Z,77.18
2018-03-29T12:07:42.818Z,76.32
2018-03-29T12:08:42.830Z,79.08
2018-03-29T12:09:42.843Z,79.88
2018-03-29T12:10:42.857Z,77.60
2018-03-29T12:11:42.867Z,75.32
2018-03-29T12:12:42.873Z,76.21
2018-03-29T12:13:42.885Z,78.17
2018-03-29T12:14:42.901Z,78.36
2018-03-29T12:15:42.912Z,83.39
2018-03-29T12:16:42.993Z,77.98
2018-03-29T12:17:42.941Z,76.08
2018-03-29T12:18:42.948Z,79.06
2018-03-29T12:19:42.963Z,80.05
2018-03-29T12:20:42.972Z,71.97
2018-03-29T12:21:42.989Z,71.82
2018-03-29T12:22:43.001Z,70.77
2018-03-29T12:23:43.015Z,72.90
2018-03-29T12:24:43.020Z,68.65
2018-03-29T12:25:43.034Z,65.45
2018-03-29T12:26:43.046Z,64.31
2018-03-29T12:27:43.059Z,64.65
2018-03-29T12:28:43.075Z,68.23
2018-03-29T12:29:43.085Z,72.07
2018-03-29T12:30:43.103Z,74.63
2018-03-29T12:31:43.110Z,70.64
2018-03-29T12:32:43.122Z,71.46
2018-03-29T12:33:43.134Z,73.36
2018-03-29T12:34:43.153Z,71.66
2018-03-29T12:35:43.161Z,72.22
2018-03-29T12:36:43.178Z,70.04
2018-03-29T12:37:43.188Z,69.73
2018-03-29T12:38:43.206Z,66.46
2018-03-29T12:39:43.220Z,69.12
2018-03-29T12:40:43.230Z,71.46
2018-03-29T12:41:43.245Z,75.70
2018-03-29T12:42:43.258Z,72.85
2018-03-29T12:43:43.272Z,72.32
2018-03-29T12:44:43.280Z,72.35
2018-03-29T12:45:43.297Z,69.98
2018-03-29T12:46:43.304Z,70.74
2018-03-29T12:47:43.323Z,74.88
2018-03-29T12:48:43.333Z,73.48
2018-03-29T12:49:43.343Z,74.47
2018-03-29T12:50:43.355Z,73.67
2018-03-29T12:51:43.375Z,74.43
2018-03-29T12:52:43.387Z,74.87